CheckWX is a tool to help pilots better visualize weather data.  It is not intended as a substitute for an official pre-flight weather briefing.

16:34:06 UTC

KLKU METAR
Louisa County / Freeman Field Airport
Louisa, Virginia, USA
Current

19 mins ago

KLKU 201615Z AUTO 02005KT 10SM SCT060 OVC110 03/M08 A3050 RMK AO2 T00291079
Observed
Feb-20 @ 16:15 UTC
Wind
  • 020° at 5 KTS
Visibility
10 SM
Flight Rules
VFR
Cloud Levels
  • Scattered at 6,000' AGL
  • Overcast at 11,000' AGL
Temperature
C / 37°F
Dewpoint
-8°C / 18°F
Humidity
45%
Altimeter
30.5" Hg
Pressure
1032.82 hPa
Previous

39 mins ago

KLKU 201555Z AUTO 01005KT 10SM SCT055 OVC110 03/M09 A3050 RMK AO2 T00251086
Observed
Feb-20 @ 15:55 UTC
Wind
  • 010° at 5 KTS
Visibility
10 SM
Flight Rules
VFR
Cloud Levels
  • Scattered at 5,500' AGL
  • Overcast at 11,000' AGL
Temperature
C / 37°F
Dewpoint
-9°C / 16°F
Humidity
41%
Altimeter
30.5" Hg
Pressure
1032.82 hPa
Previous

59 mins ago

KLKU 201535Z AUTO 04006KT 10SM OVC120 02/M08 A3051 RMK AO2 T00241083
Observed
Feb-20 @ 15:35 UTC
Wind
  • 040° at 6 KTS
Visibility
10 SM
Flight Rules
VFR
Cloud Levels
  • Overcast at 12,000' AGL
Temperature
C / 36°F
Dewpoint
-8°C / 18°F
Humidity
48%
Altimeter
30.51" Hg
Pressure
1033.22 hPa